createdAt,value
2022-11-21T00:01:09.000Z,96971
2022-11-21T00:02:36.000Z,96969
2022-11-21T00:04:42.000Z,96968
2022-11-21T00:06:08.000Z,96974
2022-11-21T00:08:15.000Z,96972
2022-11-21T00:09:41.000Z,96975
2022-11-21T00:11:47.000Z,96970
2022-11-21T00:14:38.000Z,96976
2022-11-21T00:16:05.000Z,96976
2022-11-21T00:18:11.000Z,96974
2022-11-21T00:19:37.000Z,96967
2022-11-21T00:21:43.000Z,96968
2022-11-21T00:23:10.000Z,96964
2022-11-21T00:25:16.000Z,96969
2022-11-21T00:26:42.000Z,96965
2022-11-21T00:28:49.000Z,96971
2022-11-21T00:30:15.000Z,96965
2022-11-21T00:32:21.000Z,96974
2022-11-21T00:33:48.000Z,96975
2022-11-21T00:35:54.000Z,96969
2022-11-21T00:37:20.000Z,96971
2022-11-21T00:39:26.000Z,96963
2022-11-21T00:40:53.000Z,96961
2022-11-21T00:43:00.000Z,96957
2022-11-21T00:44:26.000Z,96954
2022-11-21T00:46:32.000Z,96954
2022-11-21T00:47:59.000Z,96953
2022-11-21T00:50:05.000Z,96955
2022-11-21T00:52:56.000Z,96961
2022-11-21T00:54:23.000Z,96957
2022-11-21T00:56:29.000Z,96952
2022-11-21T00:57:55.000Z,96950
2022-11-21T01:00:01.000Z,96948
2022-11-21T01:01:28.000Z,96944
2022-11-21T01:03:34.000Z,96947
2022-11-21T01:05:00.000Z,96947
2022-11-21T01:07:06.000Z,96944
2022-11-21T01:08:33.000Z,96945
2022-11-21T01:10:39.000Z,96943
2022-11-21T01:12:06.000Z,96944
2022-11-21T01:14:12.000Z,96944
2022-11-21T01:15:38.000Z,96944
2022-11-21T01:17:45.000Z,96939
2022-11-21T01:19:11.000Z,96944
2022-11-21T01:21:17.000Z,96946
2022-11-21T01:22:44.000Z,96945
2022-11-21T01:24:50.000Z,96950
2022-11-21T01:26:16.000Z,96951
2022-11-21T01:28:22.000Z,96959
2022-11-21T01:31:13.000Z,96954
2022-11-21T01:32:40.000Z,96958
2022-11-21T01:34:46.000Z,96957
2022-11-21T01:36:13.000Z,96960
2022-11-21T01:38:19.000Z,96959
2022-11-21T01:39:45.000Z,96955
2022-11-21T01:41:51.000Z,96958
2022-11-21T01:43:18.000Z,96958
2022-11-21T01:45:24.000Z,96961
2022-11-21T01:46:50.000Z,96960
2022-11-21T01:48:56.000Z,96954
2022-11-21T01:50:23.000Z,96957
2022-11-21T01:52:29.000Z,96963
2022-11-21T01:53:56.000Z,96963
2022-11-21T01:56:02.000Z,96955
2022-11-21T01:57:28.000Z,96966
2022-11-21T01:59:34.000Z,96962
2022-11-21T02:01:01.000Z,96968
2022-11-21T02:03:07.000Z,96971
2022-11-21T02:04:33.000Z,96975
2022-11-21T02:06:40.000Z,96968
2022-11-21T02:09:31.000Z,96982
2022-11-21T02:10:57.000Z,96971
2022-11-21T02:13:03.000Z,96979
2022-11-21T02:14:30.000Z,96977
2022-11-21T02:16:36.000Z,96983
2022-11-21T02:18:02.000Z,96982
2022-11-21T02:20:08.000Z,96991
2022-11-21T02:21:35.000Z,96990
2022-11-21T02:23:41.000Z,96994
2022-11-21T02:25:08.000Z,96995
2022-11-21T02:27:14.000Z,96994
2022-11-21T02:28:40.000Z,96997
2022-11-21T02:30:46.000Z,97005
2022-11-21T02:32:13.000Z,97003
2022-11-21T02:34:19.000Z,97007
2022-11-21T02:35:45.000Z,97004
2022-11-21T02:37:51.000Z,97007
2022-11-21T02:39:18.000Z,97013
2022-11-21T02:41:24.000Z,97011
2022-11-21T02:42:50.000Z,97019
2022-11-21T02:44:58.000Z,97018
2022-11-21T02:47:49.000Z,97019
2022-11-21T02:49:16.000Z,97025
2022-11-21T02:51:22.000Z,97030
2022-11-21T02:52:48.000Z,97026
2022-11-21T02:54:55.000Z,97025
2022-11-21T02:56:21.000Z,97028
2022-11-21T02:58:27.000Z,97039
2022-11-21T02:59:54.000Z,97040
2022-11-21T03:02:00.000Z,97044
2022-11-21T03:03:27.000Z,97040
2022-11-21T03:05:33.000Z,97053
2022-11-21T03:06:59.000Z,97051
2022-11-21T03:09:05.000Z,97048
2022-11-21T03:10:32.000Z,97052
2022-11-21T03:12:38.000Z,97049
2022-11-21T03:14:05.000Z,97051
2022-11-21T03:16:11.000Z,97053
2022-11-21T03:17:37.000Z,97048
2022-11-21T03:19:44.000Z,97052
2022-11-21T03:21:10.000Z,97055
2022-11-21T03:23:16.000Z,97055
2022-11-21T03:26:07.000Z,97053
2022-11-21T03:27:34.000Z,97051
2022-11-21T03:29:40.000Z,97054
2022-11-21T03:31:06.000Z,97059
2022-11-21T03:33:13.000Z,97058
2022-11-21T03:34:39.000Z,97061
2022-11-21T03:36:45.000Z,97060
2022-11-21T03:38:12.000Z,97068
2022-11-21T03:40:18.000Z,97063
2022-11-21T03:41:44.000Z,97062
2022-11-21T03:43:50.000Z,97067
2022-11-21T03:45:17.000Z,97064
2022-11-21T03:47:23.000Z,97067
2022-11-21T03:48:50.000Z,97069
2022-11-21T03:50:56.000Z,97065
2022-11-21T03:52:22.000Z,97070
2022-11-21T03:54:28.000Z,97077
2022-11-21T03:55:56.000Z,97073
2022-11-21T03:58:02.000Z,97081
2022-11-21T03:59:28.000Z,97080
2022-11-21T04:01:34.000Z,97082
2022-11-21T04:04:28.000Z,97082
2022-11-21T04:05:55.000Z,97086
2022-11-21T04:08:01.000Z,97081
2022-11-21T04:09:27.000Z,97084
2022-11-21T04:11:33.000Z,97093
2022-11-21T04:13:00.000Z,97091
2022-11-21T04:15:06.000Z,97096
2022-11-21T04:16:39.000Z,97093
2022-11-21T04:18:46.000Z,97098
2022-11-21T04:20:12.000Z,97090
2022-11-21T04:22:18.000Z,97093
2022-11-21T04:23:45.000Z,97093
2022-11-21T04:25:51.000Z,97094
2022-11-21T04:27:17.000Z,97093
2022-11-21T04:29:23.000Z,97099
2022-11-21T04:30:50.000Z,97101
2022-11-21T04:33:00.000Z,97100
2022-11-21T04:34:27.000Z,97104
2022-11-21T04:36:33.000Z,97106
2022-11-21T04:38:00.000Z,97105
2022-11-21T04:40:06.000Z,97104
2022-11-21T04:42:57.000Z,97099
2022-11-21T04:44:24.000Z,97101
2022-11-21T04:46:30.000Z,97103
2022-11-21T04:47:57.000Z,97101
2022-11-21T04:50:03.000Z,97107
2022-11-21T04:51:29.000Z,97104
2022-11-21T04:53:35.000Z,97107
2022-11-21T04:55:09.000Z,97104
2022-11-21T04:57:15.000Z,97107
2022-11-21T04:58:41.000Z,97103
2022-11-21T05:00:47.000Z,97100
2022-11-21T05:02:14.000Z,97094
2022-11-21T05:04:20.000Z,97087
2022-11-21T05:05:46.000Z,97094
2022-11-21T05:07:53.000Z,97099
2022-11-21T05:09:19.000Z,97096
2022-11-21T05:11:25.000Z,97095
2022-11-21T05:12:52.000Z,97102
2022-11-21T05:14:58.000Z,97102
2022-11-21T05:16:25.000Z,97102
2022-11-21T05:18:31.000Z,97108
2022-11-21T05:21:22.000Z,97110
2022-11-21T05:22:48.000Z,97115
2022-11-21T05:24:54.000Z,97119
2022-11-21T05:26:21.000Z,97114
2022-11-21T05:28:27.000Z,97114
2022-11-21T05:29:53.000Z,97110
2022-11-21T05:32:00.000Z,97113
2022-11-21T05:33:26.000Z,97109
2022-11-21T05:35:32.000Z,97114
2022-11-21T05:36:59.000Z,97115
2022-11-21T05:39:05.000Z,97117
2022-11-21T05:40:31.000Z,97116
2022-11-21T05:42:37.000Z,97120
2022-11-21T05:44:04.000Z,97120
2022-11-21T05:46:10.000Z,97121
2022-11-21T05:47:37.000Z,97121
2022-11-21T05:49:43.000Z,97115
2022-11-21T05:51:09.000Z,97115
2022-11-21T05:53:15.000Z,97118
2022-11-21T05:54:42.000Z,97117
2022-11-21T05:56:52.000Z,97116
2022-11-21T05:59:43.000Z,97126
2022-11-21T06:01:10.000Z,97127
2022-11-21T06:03:16.000Z,97129
2022-11-21T06:04:42.000Z,97131
2022-11-21T06:06:48.000Z,97129
2022-11-21T06:08:15.000Z,97130
2022-11-21T06:10:21.000Z,97128
2022-11-21T06:11:47.000Z,97123
2022-11-21T06:13:54.000Z,97127
2022-11-21T06:15:20.000Z,97127
2022-11-21T06:17:26.000Z,97131
2022-11-21T06:18:53.000Z,97133
2022-11-21T06:21:04.000Z,97136
2022-11-21T06:22:31.000Z,97136
2022-11-21T06:24:37.000Z,97143
2022-11-21T06:26:03.000Z,97141
2022-11-21T06:28:09.000Z,97141
2022-11-21T06:29:36.000Z,97142
2022-11-21T06:31:42.000Z,97143
2022-11-21T06:33:09.000Z,97139
2022-11-21T06:35:15.000Z,97142
2022-11-21T06:38:06.000Z,97146
2022-11-21T06:39:32.000Z,97146
2022-11-21T06:41:39.000Z,97152
2022-11-21T06:43:05.000Z,97154
2022-11-21T06:45:11.000Z,97154
2022-11-21T06:46:38.000Z,97153
2022-11-21T06:48:44.000Z,97153
2022-11-21T06:50:10.000Z,97153
2022-11-21T06:52:16.000Z,97153
2022-11-21T06:53:43.000Z,97152
2022-11-21T06:55:49.000Z,97149
2022-11-21T06:57:15.000Z,97150
2022-11-21T06:59:22.000Z,97148
2022-11-21T07:00:48.000Z,97147
2022-11-21T07:02:54.000Z,97149
2022-11-21T07:04:29.000Z,97151
2022-11-21T07:06:35.000Z,97152
2022-11-21T07:08:02.000Z,97153
2022-11-21T07:10:08.000Z,97153
2022-11-21T07:11:34.000Z,97159
2022-11-21T07:13:40.000Z,97162
2022-11-21T07:16:32.000Z,97162
2022-11-21T07:17:58.000Z,97165
2022-11-21T07:20:04.000Z,97168
2022-11-21T07:21:31.000Z,97170
2022-11-21T07:23:37.000Z,97178
2022-11-21T07:25:03.000Z,97173
2022-11-21T07:27:09.000Z,97176
2022-11-21T07:28:36.000Z,97180
2022-11-21T07:30:42.000Z,97179
2022-11-21T07:32:08.000Z,97184
2022-11-21T07:34:14.000Z,97184
2022-11-21T07:35:41.000Z,97179
2022-11-21T07:37:47.000Z,97185
2022-11-21T07:39:14.000Z,97183
2022-11-21T07:41:20.000Z,97184
2022-11-21T07:42:46.000Z,97180
2022-11-21T07:44:53.000Z,97182
2022-11-21T07:46:19.000Z,97177
2022-11-21T07:48:25.000Z,97176
2022-11-21T07:49:52.000Z,97180
2022-11-21T07:51:58.000Z,97179
2022-11-21T07:54:49.000Z,97175
2022-11-21T07:56:16.000Z,97183
2022-11-21T07:58:22.000Z,97182
2022-11-21T07:59:48.000Z,97183
2022-11-21T08:01:54.000Z,97185
2022-11-21T08:03:21.000Z,97189
2022-11-21T08:05:27.000Z,97191
2022-11-21T08:06:54.000Z,97194
2022-11-21T08:09:00.000Z,97193
2022-11-21T08:10:27.000Z,97190
2022-11-21T08:12:33.000Z,97193
2022-11-21T08:13:59.000Z,97192
2022-11-21T08:16:05.000Z,97194
2022-11-21T08:17:32.000Z,97191
2022-11-21T08:19:38.000Z,97190
2022-11-21T08:21:04.000Z,97198
2022-11-21T08:23:11.000Z,97195
2022-11-21T08:24:37.000Z,97199
2022-11-21T08:26:43.000Z,97193
2022-11-21T08:28:10.000Z,97197
2022-11-21T08:30:16.000Z,97202
2022-11-21T08:33:07.000Z,97202
2022-11-21T08:34:33.000Z,97200
2022-11-21T08:36:40.000Z,97201
2022-11-21T08:38:06.000Z,97201
2022-11-21T08:40:12.000Z,97201
2022-11-21T08:41:39.000Z,97197
2022-11-21T08:43:45.000Z,97189
2022-11-21T08:45:11.000Z,97195
2022-11-21T08:47:18.000Z,97197
2022-11-21T08:48:44.000Z,97192
2022-11-21T08:50:50.000Z,97189
2022-11-21T08:52:17.000Z,97188
2022-11-21T08:54:23.000Z,97190
2022-11-21T08:55:49.000Z,97192
2022-11-21T08:57:56.000Z,97189
2022-11-21T08:59:22.000Z,97194
2022-11-21T09:01:28.000Z,97194
2022-11-21T09:02:55.000Z,97193
2022-11-21T09:05:01.000Z,97195
2022-11-21T09:06:28.000Z,97194
2022-11-21T09:08:34.000Z,97193
2022-11-21T09:11:25.000Z,97193
2022-11-21T09:12:51.000Z,97193
2022-11-21T09:14:57.000Z,97194
2022-11-21T09:16:24.000Z,97195
2022-11-21T09:18:30.000Z,97194
2022-11-21T09:19:56.000Z,97199
2022-11-21T09:22:03.000Z,97202
2022-11-21T09:23:29.000Z,97196
2022-11-21T09:25:35.000Z,97194
2022-11-21T09:27:02.000Z,97201
2022-11-21T09:29:08.000Z,97197
2022-11-21T09:30:34.000Z,97197
2022-11-21T09:32:40.000Z,97193
2022-11-21T09:34:07.000Z,97190
2022-11-21T09:36:13.000Z,97186
2022-11-21T09:37:40.000Z,97184
2022-11-21T09:39:46.000Z,97184
2022-11-21T09:41:12.000Z,97183
2022-11-21T09:43:19.000Z,97178
2022-11-21T09:44:45.000Z,97175
2022-11-21T09:46:53.000Z,97174
2022-11-21T09:49:44.000Z,97182
2022-11-21T09:51:11.000Z,97176
2022-11-21T09:53:17.000Z,97179
2022-11-21T09:54:43.000Z,97178
2022-11-21T09:56:49.000Z,97183
2022-11-21T09:58:16.000Z,97181
2022-11-21T10:00:22.000Z,97182
2022-11-21T10:01:48.000Z,97181
2022-11-21T10:03:55.000Z,97181
2022-11-21T10:05:21.000Z,97181
2022-11-21T10:07:27.000Z,97179
2022-11-21T10:08:54.000Z,97176
2022-11-21T10:11:00.000Z,97170
2022-11-21T10:12:37.000Z,97168
2022-11-21T10:14:43.000Z,97165
2022-11-21T10:16:10.000Z,97167
2022-11-21T10:18:16.000Z,97172
2022-11-21T10:19:43.000Z,97175
2022-11-21T10:21:49.000Z,97177
2022-11-21T10:23:15.000Z,97177
2022-11-21T10:25:21.000Z,97182
2022-11-21T10:28:18.000Z,97178
2022-11-21T10:29:44.000Z,97183
2022-11-21T10:31:50.000Z,97177
2022-11-21T10:33:17.000Z,97174
2022-11-21T10:35:23.000Z,97170
2022-11-21T10:36:49.000Z,97173
2022-11-21T10:38:55.000Z,97168
2022-11-21T10:40:22.000Z,97164
2022-11-21T10:42:28.000Z,97162
2022-11-21T10:43:54.000Z,97159
2022-11-21T10:46:01.000Z,97154
2022-11-21T10:47:27.000Z,97153
2022-11-21T10:49:33.000Z,97153
2022-11-21T10:51:00.000Z,97153
2022-11-21T10:53:06.000Z,97149
2022-11-21T10:54:33.000Z,97147
2022-11-21T10:56:39.000Z,97151
2022-11-21T10:58:05.000Z,97148
2022-11-21T11:00:11.000Z,97145
2022-11-21T11:01:38.000Z,97142
2022-11-21T11:03:44.000Z,97139
2022-11-21T11:07:04.000Z,97142
2022-11-21T11:08:31.000Z,97141
2022-11-21T11:10:37.000Z,97138
2022-11-21T11:12:04.000Z,97137
2022-11-21T11:14:10.000Z,97135
2022-11-21T11:15:36.000Z,97131
2022-11-21T11:17:42.000Z,97128
2022-11-21T11:19:09.000Z,97127
2022-11-21T11:21:15.000Z,97121
2022-11-21T11:22:41.000Z,97121
2022-11-21T11:24:47.000Z,97115
2022-11-21T11:26:14.000Z,97114
2022-11-21T11:28:20.000Z,97107
2022-11-21T11:29:47.000Z,97104
2022-11-21T11:31:53.000Z,97104
2022-11-21T11:33:19.000Z,97101
2022-11-21T11:35:25.000Z,97096
2022-11-21T11:36:52.000Z,97097
2022-11-21T11:38:58.000Z,97097
2022-11-21T11:40:24.000Z,97095
2022-11-21T11:42:30.000Z,97100
2022-11-21T11:45:22.000Z,97096
2022-11-21T11:46:48.000Z,97096
2022-11-21T11:48:54.000Z,97089
2022-11-21T11:50:46.000Z,97089
2022-11-21T11:52:52.000Z,97083
2022-11-21T11:54:19.000Z,97084
2022-11-21T11:56:25.000Z,97079
2022-11-21T11:57:51.000Z,97082
2022-11-21T11:59:57.000Z,97076
2022-11-21T12:01:24.000Z,97073
2022-11-21T12:03:30.000Z,97074
2022-11-21T12:04:56.000Z,97069
2022-11-21T12:07:03.000Z,97067
2022-11-21T12:10:05.000Z,97056
2022-11-21T12:12:11.000Z,97046
2022-11-21T12:13:38.000Z,97044
2022-11-21T12:15:44.000Z,97041
2022-11-21T12:17:10.000Z,97036
2022-11-21T12:19:16.000Z,97035
2022-11-21T12:20:43.000Z,97037
2022-11-21T12:22:49.000Z,97037
2022-11-21T12:25:40.000Z,97032
2022-11-21T12:27:07.000Z,97034
2022-11-21T12:29:13.000Z,97036
2022-11-21T12:30:39.000Z,97030
2022-11-21T12:32:46.000Z,97025
2022-11-21T12:34:13.000Z,97025
2022-11-21T12:36:19.000Z,97019
2022-11-21T12:37:46.000Z,97018
2022-11-21T12:39:53.000Z,97018
2022-11-21T12:41:19.000Z,97017
2022-11-21T12:43:25.000Z,97013
2022-11-21T12:44:52.000Z,97013
2022-11-21T12:46:58.000Z,97014
2022-11-21T12:48:24.000Z,97017
2022-11-21T12:50:30.000Z,97009
2022-11-21T12:51:57.000Z,97008
2022-11-21T12:54:03.000Z,97005
2022-11-21T12:55:30.000Z,97003
2022-11-21T12:57:41.000Z,97004
2022-11-21T12:59:08.000Z,97003
2022-11-21T13:01:14.000Z,97004
2022-11-21T13:04:12.000Z,97006
2022-11-21T13:05:38.000Z,97002
2022-11-21T13:07:44.000Z,96998
2022-11-21T13:09:11.000Z,96998
2022-11-21T13:11:17.000Z,96998
2022-11-21T13:12:43.000Z,96996
2022-11-21T13:14:50.000Z,96995
2022-11-21T13:16:16.000Z,96992
2022-11-21T13:18:22.000Z,96990
2022-11-21T13:19:49.000Z,96987
2022-11-21T13:21:55.000Z,96984
2022-11-21T13:23:21.000Z,96984
2022-11-21T13:25:27.000Z,96976
2022-11-21T13:26:54.000Z,96974
2022-11-21T13:29:00.000Z,96974
2022-11-21T13:30:26.000Z,96977
2022-11-21T13:32:33.000Z,96975
2022-11-21T13:33:59.000Z,96975
2022-11-21T13:36:05.000Z,96974
2022-11-21T13:37:32.000Z,96971
2022-11-21T13:39:38.000Z,96966
2022-11-21T13:42:29.000Z,96968
2022-11-21T13:43:55.000Z,96967
2022-11-21T13:46:02.000Z,96966
2022-11-21T13:47:28.000Z,96966
2022-11-21T13:49:34.000Z,96965
2022-11-21T13:51:01.000Z,96966
2022-11-21T13:53:07.000Z,96962
2022-11-21T13:54:33.000Z,96961
2022-11-21T13:56:39.000Z,96954
2022-11-21T13:58:06.000Z,96954
2022-11-21T14:00:12.000Z,96951
2022-11-21T14:01:45.000Z,96948
2022-11-21T14:03:52.000Z,96945
2022-11-21T14:05:18.000Z,96949
2022-11-21T14:07:24.000Z,96947
2022-11-21T14:08:51.000Z,96945
2022-11-21T14:10:57.000Z,96944
2022-11-21T14:12:24.000Z,96946
2022-11-21T14:14:38.000Z,96945
2022-11-21T14:16:05.000Z,96941
2022-11-21T14:18:11.000Z,96938
2022-11-21T14:21:02.000Z,96934
2022-11-21T14:22:29.000Z,96933
2022-11-21T14:24:42.000Z,96928
2022-11-21T14:26:08.000Z,96928
2022-11-21T14:28:14.000Z,96923
2022-11-21T14:29:41.000Z,96925
2022-11-21T14:31:47.000Z,96926
2022-11-21T14:33:14.000Z,96921
2022-11-21T14:35:20.000Z,96917
2022-11-21T14:36:46.000Z,96918
2022-11-21T14:38:52.000Z,96911
2022-11-21T14:40:55.000Z,96909
2022-11-21T14:43:01.000Z,96908
2022-11-21T14:44:28.000Z,96902
2022-11-21T14:46:35.000Z,96899
2022-11-21T14:48:01.000Z,96901
2022-11-21T14:50:07.000Z,96897
2022-11-21T14:51:34.000Z,96893
2022-11-21T14:53:40.000Z,96888
2022-11-21T14:55:07.000Z,96888
2022-11-21T14:57:37.000Z,96886
2022-11-21T15:00:28.000Z,96878
2022-11-21T15:02:26.000Z,96876
2022-11-21T15:04:32.000Z,96876
2022-11-21T15:05:58.000Z,96876
2022-11-21T15:08:12.000Z,96879
2022-11-21T15:10:17.000Z,96872
2022-11-21T15:12:39.000Z,96873
2022-11-21T15:14:12.000Z,96872
2022-11-21T15:16:22.000Z,96872
2022-11-21T15:17:49.000Z,96872
2022-11-21T15:20:32.000Z,96871
2022-11-21T15:21:58.000Z,96871
2022-11-21T15:24:04.000Z,96863
2022-11-21T15:25:31.000Z,96858
2022-11-21T15:27:37.000Z,96850
2022-11-21T15:29:04.000Z,96852
2022-11-21T15:31:10.000Z,96849
2022-11-21T15:32:37.000Z,96848
2022-11-21T15:34:44.000Z,96850
2022-11-21T15:36:10.000Z,96852
2022-11-21T15:38:16.000Z,96853
2022-11-21T15:41:07.000Z,96857
2022-11-21T15:42:34.000Z,96853
2022-11-21T15:44:40.000Z,96852
2022-11-21T15:46:06.000Z,96857
2022-11-21T15:48:12.000Z,96856
2022-11-21T15:49:39.000Z,96853
2022-11-21T15:51:45.000Z,96847
2022-11-21T15:53:35.000Z,96840
2022-11-21T15:55:41.000Z,96838
2022-11-21T15:57:08.000Z,96834
2022-11-21T15:59:14.000Z,96828
2022-11-21T16:00:40.000Z,96818
2022-11-21T16:02:46.000Z,96814
2022-11-21T16:04:14.000Z,96805
2022-11-21T16:06:20.000Z,96801
2022-11-21T16:07:46.000Z,96797
2022-11-21T16:09:54.000Z,96796
2022-11-21T16:11:21.000Z,96795
2022-11-21T16:13:27.000Z,96790
2022-11-21T16:14:53.000Z,96788
2022-11-21T16:17:00.000Z,96785
2022-11-21T16:19:51.000Z,96784
2022-11-21T16:21:17.000Z,96781
2022-11-21T16:23:24.000Z,96779
2022-11-21T16:24:50.000Z,96776
2022-11-21T16:26:56.000Z,96767
2022-11-21T16:28:23.000Z,96767
2022-11-21T16:30:29.000Z,96765
2022-11-21T16:31:55.000Z,96760
2022-11-21T16:34:02.000Z,96758
2022-11-21T16:35:28.000Z,96753
2022-11-21T16:37:34.000Z,96750
2022-11-21T16:39:01.000Z,96747
2022-11-21T16:41:15.000Z,96746
2022-11-21T16:42:41.000Z,96740
2022-11-21T16:44:47.000Z,96740
2022-11-21T16:46:14.000Z,96734
2022-11-21T16:48:20.000Z,96736
2022-11-21T16:49:47.000Z,96727
2022-11-21T16:51:54.000Z,96720
2022-11-21T16:53:21.000Z,96721
2022-11-21T16:55:27.000Z,96722
2022-11-21T16:58:18.000Z,96722
2022-11-21T16:59:45.000Z,96724
2022-11-21T17:01:51.000Z,96723
2022-11-21T17:03:17.000Z,96715
2022-11-21T17:05:23.000Z,96706
2022-11-21T17:06:50.000Z,96707
2022-11-21T17:08:56.000Z,96706
2022-11-21T17:10:22.000Z,96699
2022-11-21T17:12:29.000Z,96700
2022-11-21T17:13:55.000Z,96694
2022-11-21T17:16:01.000Z,96691
2022-11-21T17:17:28.000Z,96693
2022-11-21T17:19:34.000Z,96693
2022-11-21T17:21:00.000Z,96695
2022-11-21T17:23:06.000Z,96692
2022-11-21T17:24:33.000Z,96685
2022-11-21T17:26:39.000Z,96685
2022-11-21T17:28:05.000Z,96675
2022-11-21T17:30:12.000Z,96674
2022-11-21T17:31:38.000Z,96670
2022-11-21T17:33:44.000Z,96666
2022-11-21T17:36:35.000Z,96660
2022-11-21T17:38:02.000Z,96651
2022-11-21T17:40:08.000Z,96650
2022-11-21T17:41:34.000Z,96649
2022-11-21T17:43:40.000Z,96644
2022-11-21T17:45:07.000Z,96648
2022-11-21T17:47:13.000Z,96643
2022-11-21T17:48:40.000Z,96642
2022-11-21T17:50:46.000Z,96642
2022-11-21T17:52:12.000Z,96643
2022-11-21T17:54:18.000Z,96640
2022-11-21T17:55:45.000Z,96635
2022-11-21T17:57:51.000Z,96634
2022-11-21T17:59:18.000Z,96630
2022-11-21T18:01:24.000Z,96630
2022-11-21T18:02:50.000Z,96633
2022-11-21T18:04:57.000Z,96631
2022-11-21T18:06:23.000Z,96627
2022-11-21T18:08:29.000Z,96622
2022-11-21T18:09:56.000Z,96621
2022-11-21T18:12:33.000Z,96624
2022-11-21T18:15:25.000Z,96624
2022-11-21T18:16:51.000Z,96622
2022-11-21T18:18:59.000Z,96613
2022-11-21T18:20:26.000Z,96613
2022-11-21T18:22:32.000Z,96610
2022-11-21T18:23:58.000Z,96608
2022-11-21T18:26:04.000Z,96608
2022-11-21T18:27:31.000Z,96604
2022-11-21T18:29:37.000Z,96603
2022-11-21T18:31:04.000Z,96605
2022-11-21T18:33:10.000Z,96601
2022-11-21T18:34:43.000Z,96605
2022-11-21T18:36:49.000Z,96607
2022-11-21T18:38:16.000Z,96608
2022-11-21T18:40:53.000Z,96603
2022-11-21T18:42:20.000Z,96609
2022-11-21T18:44:26.000Z,96610
2022-11-21T18:45:52.000Z,96609
2022-11-21T18:47:58.000Z,96608
2022-11-21T18:49:25.000Z,96603
2022-11-21T18:51:31.000Z,96596
2022-11-21T18:54:22.000Z,96594
2022-11-21T18:55:49.000Z,96595
2022-11-21T18:57:55.000Z,96595
2022-11-21T18:59:22.000Z,96587
2022-11-21T19:01:28.000Z,96587
2022-11-21T19:02:55.000Z,96586
2022-11-21T19:05:01.000Z,96589
2022-11-21T19:06:27.000Z,96587
2022-11-21T19:08:33.000Z,96591
2022-11-21T19:10:00.000Z,96593
2022-11-21T19:12:47.000Z,96586
2022-11-21T19:14:13.000Z,96589
2022-11-21T19:16:19.000Z,96592
2022-11-21T19:17:46.000Z,96589
2022-11-21T19:19:52.000Z,96589
2022-11-21T19:21:19.000Z,96587
2022-11-21T19:23:25.000Z,96585
2022-11-21T19:24:51.000Z,96583
2022-11-21T19:26:58.000Z,96578
2022-11-21T19:28:24.000Z,96575
2022-11-21T19:30:30.000Z,96578
2022-11-21T19:33:21.000Z,96590
2022-11-21T19:34:48.000Z,96598
2022-11-21T19:36:54.000Z,96596
2022-11-21T19:38:20.000Z,96593
2022-11-21T19:40:26.000Z,96585
2022-11-21T19:41:53.000Z,96586
2022-11-21T19:43:59.000Z,96581
2022-11-21T19:45:26.000Z,96576
2022-11-21T19:47:32.000Z,96575
2022-11-21T19:48:58.000Z,96579
2022-11-21T19:51:04.000Z,96581
2022-11-21T19:52:31.000Z,96581
2022-11-21T19:54:37.000Z,96574
2022-11-21T19:56:04.000Z,96575
2022-11-21T19:58:10.000Z,96566
2022-11-21T19:59:36.000Z,96563
2022-11-21T20:01:42.000Z,96564
2022-11-21T20:03:15.000Z,96568
2022-11-21T20:05:22.000Z,96564
2022-11-21T20:06:48.000Z,96564
2022-11-21T20:08:54.000Z,96564
2022-11-21T20:11:45.000Z,96561
2022-11-21T20:13:12.000Z,96557
2022-11-21T20:15:18.000Z,96557
2022-11-21T20:16:44.000Z,96553
2022-11-21T20:18:50.000Z,96559
2022-11-21T20:20:17.000Z,96559
2022-11-21T20:22:23.000Z,96562
2022-11-21T20:23:50.000Z,96556
2022-11-21T20:25:56.000Z,96555
2022-11-21T20:27:22.000Z,96549
2022-11-21T20:29:28.000Z,96548
2022-11-21T20:30:56.000Z,96542
2022-11-21T20:33:02.000Z,96539
2022-11-21T20:34:34.000Z,96530
2022-11-21T20:36:40.000Z,96530
2022-11-21T20:38:07.000Z,96527
2022-11-21T20:40:13.000Z,96521
2022-11-21T20:41:40.000Z,96517
2022-11-21T20:43:46.000Z,96511
2022-11-21T20:46:10.000Z,96507
2022-11-21T20:48:24.000Z,96504
2022-11-21T20:55:48.000Z,96489
2022-11-21T20:57:14.000Z,96490
2022-11-21T20:59:21.000Z,96486
2022-11-21T21:00:48.000Z,96485
2022-11-21T21:02:54.000Z,96486
2022-11-21T21:04:20.000Z,96484
2022-11-21T21:06:26.000Z,96486
2022-11-21T21:07:53.000Z,96480
2022-11-21T21:09:59.000Z,96482
2022-11-21T21:11:26.000Z,96484
2022-11-21T21:13:57.000Z,96482
2022-11-21T21:15:24.000Z,96484
2022-11-21T21:17:30.000Z,96482
2022-11-21T21:18:57.000Z,96484
2022-11-21T21:21:03.000Z,96483
2022-11-21T21:22:43.000Z,96484
2022-11-21T21:24:49.000Z,96484
2022-11-21T21:26:16.000Z,96488
2022-11-21T21:28:22.000Z,96486
2022-11-21T21:31:13.000Z,96479
2022-11-21T21:32:40.000Z,96479
2022-11-21T21:34:46.000Z,96476
2022-11-21T21:36:12.000Z,96474
2022-11-21T21:38:18.000Z,96471
2022-11-21T21:39:45.000Z,96470
2022-11-21T21:41:51.000Z,96469
2022-11-21T21:43:18.000Z,96465
2022-11-21T21:45:24.000Z,96464
2022-11-21T21:46:50.000Z,96459
2022-11-21T21:48:56.000Z,96455
2022-11-21T21:50:23.000Z,96452
2022-11-21T21:52:29.000Z,96452
2022-11-21T21:53:56.000Z,96453
2022-11-21T21:56:02.000Z,96449
2022-11-21T21:57:28.000Z,96450
2022-11-21T21:59:35.000Z,96445
2022-11-21T22:01:01.000Z,96445
2022-11-21T22:03:07.000Z,96443
2022-11-21T22:04:34.000Z,96441
2022-11-21T22:06:40.000Z,96436
2022-11-21T22:09:31.000Z,96437
2022-11-21T22:10:58.000Z,96440
2022-11-21T22:13:04.000Z,96439
2022-11-21T22:14:30.000Z,96435
2022-11-21T22:16:37.000Z,96435
2022-11-21T22:18:04.000Z,96438
2022-11-21T22:20:10.000Z,96437
2022-11-21T22:21:36.000Z,96434
2022-11-21T22:23:42.000Z,96434
2022-11-21T22:25:36.000Z,96436
2022-11-21T22:27:42.000Z,96438
2022-11-21T22:29:08.000Z,96441
2022-11-21T22:31:14.000Z,96434
2022-11-21T22:32:41.000Z,96435
2022-11-21T22:34:47.000Z,96431
2022-11-21T22:36:14.000Z,96429
2022-11-21T22:38:20.000Z,96423
2022-11-21T22:39:46.000Z,96422
2022-11-21T22:41:52.000Z,96419
2022-11-21T22:43:26.000Z,96419
2022-11-21T22:45:32.000Z,96415
2022-11-21T22:48:23.000Z,96412
2022-11-21T22:49:49.000Z,96413
2022-11-21T22:51:55.000Z,96418
2022-11-21T22:53:22.000Z,96415
2022-11-21T22:55:28.000Z,96418
2022-11-21T22:56:54.000Z,96416
2022-11-21T22:59:01.000Z,96415
2022-11-21T23:00:27.000Z,96418
2022-11-21T23:02:33.000Z,96418
2022-11-21T23:04:00.000Z,96418
2022-11-21T23:06:06.000Z,96417
2022-11-21T23:07:32.000Z,96414
2022-11-21T23:09:39.000Z,96410
2022-11-21T23:11:05.000Z,96409
2022-11-21T23:13:11.000Z,96416
2022-11-21T23:14:38.000Z,96414
2022-11-21T23:16:44.000Z,96413
2022-11-21T23:18:10.000Z,96409
2022-11-21T23:20:16.000Z,96408
2022-11-21T23:21:43.000Z,96410
2022-11-21T23:23:49.000Z,96409
2022-11-21T23:26:40.000Z,96406
2022-11-21T23:28:07.000Z,96403
2022-11-21T23:30:13.000Z,96406
2022-11-21T23:31:39.000Z,96402
2022-11-21T23:33:45.000Z,96404
2022-11-21T23:35:12.000Z,96405
2022-11-21T23:37:18.000Z,96406
2022-11-21T23:38:45.000Z,96407
2022-11-21T23:40:51.000Z,96407
2022-11-21T23:42:17.000Z,96407
2022-11-21T23:44:23.000Z,96408
2022-11-21T23:45:50.000Z,96407